createdAt,value
2022-08-05T00:00:46.348Z,2.30
2022-08-05T00:06:04.777Z,2.60
2022-08-05T00:08:38.761Z,2.60
2022-08-05T00:16:36.077Z,3.25
2022-08-05T00:19:16.338Z,2.78
2022-08-05T00:21:51.877Z,3.22
2022-08-05T00:24:24.544Z,4.10
2022-08-05T00:26:55.131Z,4.00
2022-08-05T00:29:25.805Z,4.38
2022-08-05T00:32:12.467Z,4.00
2022-08-05T00:35:05.124Z,4.88
2022-08-05T00:37:51.254Z,5.50
2022-08-05T00:40:26.904Z,5.47
2022-08-05T00:42:56.410Z,5.53
2022-08-05T00:45:38.765Z,5.95
2022-08-05T00:48:13.568Z,5.50
2022-08-05T00:50:45.854Z,4.95
2022-08-05T00:53:44.893Z,4.97
2022-08-05T00:56:04.261Z,4.82
2022-08-05T00:58:32.266Z,4.70
2022-08-05T01:01:00.641Z,5.03
2022-08-05T01:03:30.871Z,5.05
2022-08-05T01:06:01.461Z,4.50
2022-08-05T01:08:42.800Z,4.50
2022-08-05T01:11:22.380Z,4.57
2022-08-05T01:14:09.006Z,4.72
2022-08-05T01:16:45.224Z,3.92
2022-08-05T01:19:46.378Z,4.13
2022-08-05T01:22:27.971Z,3.67
2022-08-05T01:25:09.839Z,4.03
2022-08-05T01:27:55.526Z,4.28
2022-08-05T01:30:34.290Z,3.65
2022-08-05T01:33:08.366Z,4.00
2022-08-05T01:35:51.294Z,3.90
2022-08-05T01:38:27.156Z,3.75
2022-08-05T01:40:59.889Z,3.60
2022-08-05T01:43:33.941Z,3.35
2022-08-05T01:46:07.135Z,3.67
2022-08-05T01:48:49.544Z,3.88
2022-08-05T01:51:20.083Z,4.15
2022-08-05T01:53:57.958Z,3.83
2022-08-05T01:58:11.161Z,3.60
2022-08-05T01:59:23.949Z,4.35
2022-08-05T02:01:57.938Z,4.30
2022-08-05T02:04:29.943Z,4.20
2022-08-05T02:06:59.941Z,4.70
2022-08-05T02:09:32.090Z,5.15
2022-08-05T02:12:06.112Z,4.60
2022-08-05T02:14:47.105Z,4.38
2022-08-05T02:18:27.458Z,4.60
2022-08-05T02:20:22.182Z,4.47
2022-08-05T02:22:57.285Z,4.50
2022-08-05T02:25:33.129Z,4.18
2022-08-05T02:28:08.985Z,4.35
2022-08-05T02:30:54.344Z,4.00
2022-08-05T02:33:38.232Z,4.05
2022-08-05T02:36:10.128Z,4.55
2022-08-05T02:38:53.405Z,4.50
2022-08-05T02:44:05.915Z,4.72
2022-08-05T02:46:58.540Z,3.88
2022-08-05T02:49:36.936Z,3.95
2022-08-05T02:52:09.277Z,4.30
2022-08-05T02:54:41.336Z,3.45
2022-08-05T02:58:11.378Z,4.00
2022-08-05T03:00:01.615Z,3.83
2022-08-05T03:02:37.068Z,4.45
2022-08-05T03:05:09.089Z,4.40
2022-08-05T03:08:01.183Z,4.45
2022-08-05T03:10:29.116Z,4.43
2022-08-05T03:15:24.566Z,4.13
2022-08-05T03:17:57.561Z,3.60
2022-08-05T03:20:26.398Z,3.97
2022-08-05T03:22:57.660Z,3.95
2022-08-05T03:25:32.684Z,4.82
2022-08-05T03:28:18.826Z,4.80
2022-08-05T03:30:49.717Z,3.78
2022-08-05T03:33:21.094Z,3.85
2022-08-05T03:35:50.430Z,3.83
2022-08-05T03:38:23.849Z,4.35
2022-08-05T03:41:08.202Z,3.72
2022-08-05T03:44:08.699Z,3.80
2022-08-05T03:46:29.721Z,3.97
2022-08-05T03:49:02.018Z,3.22
2022-08-05T03:52:37.864Z,3.25
2022-08-05T03:55:54.207Z,2.92
2022-08-05T03:57:42.337Z,3.05
2022-08-05T04:00:15.580Z,3.13
2022-08-05T04:02:58.774Z,3.58
2022-08-05T04:05:34.045Z,3.15
2022-08-05T04:08:05.691Z,3.20
2022-08-05T04:10:43.534Z,3.30
2022-08-05T04:13:11.591Z,2.92
2022-08-05T04:15:52.647Z,3.08
2022-08-05T04:18:25.519Z,3.53
2022-08-05T04:20:59.592Z,3.33
2022-08-05T04:24:05.305Z,3.38
2022-08-05T04:26:18.642Z,3.45
2022-08-05T04:28:51.171Z,3.95
2022-08-05T04:31:20.662Z,4.15
2022-08-05T04:34:18.479Z,3.88
2022-08-05T04:36:45.812Z,4.43
2022-08-05T04:39:17.652Z,4.20
2022-08-05T04:41:46.334Z,4.07
2022-08-05T04:46:57.188Z,3.70
2022-08-05T04:49:38.400Z,3.65
2022-08-05T04:52:09.017Z,3.80
2022-08-05T04:54:36.972Z,4.07
2022-08-05T04:57:05.305Z,3.47
2022-08-05T04:59:38.941Z,3.85
2022-08-05T05:02:37.540Z,4.28
2022-08-05T05:05:01.920Z,3.70
2022-08-05T05:07:35.575Z,5.25
2022-08-05T05:10:06.528Z,6.60
2022-08-05T05:12:36.690Z,8.90
2022-08-05T05:17:55.480Z,13.05
2022-08-05T05:20:28.479Z,14.52
2022-08-05T05:22:58.595Z,14.48
2022-08-05T05:25:40.233Z,14.98
2022-08-05T05:28:08.805Z,14.00
2022-08-05T05:30:37.878Z,14.77
2022-08-05T05:33:16.227Z,16.88
2022-08-05T05:35:47.497Z,19.03
2022-08-05T05:38:22.521Z,19.90
2022-08-05T05:40:56.317Z,19.07
2022-08-05T05:43:54.371Z,17.65
2022-08-05T05:46:17.638Z,18.75
2022-08-05T05:48:48.872Z,23.48
2022-08-05T05:51:24.232Z,23.25
2022-08-05T05:53:59.583Z,22.20
2022-08-05T05:56:31.621Z,23.63
2022-08-05T05:59:03.590Z,22.85
2022-08-05T06:01:37.783Z,23.80
2022-08-05T06:04:11.753Z,21.80
2022-08-05T06:06:42.414Z,21.05
2022-08-05T06:09:17.044Z,21.55
2022-08-05T06:12:01.161Z,22.15
2022-08-05T06:14:30.259Z,20.42
2022-08-05T06:16:58.702Z,20.63
2022-08-05T06:19:35.285Z,21.15
2022-08-05T06:22:03.958Z,20.10
2022-08-05T06:24:33.668Z,19.58
2022-08-05T06:27:04.118Z,17.63
2022-08-05T06:29:49.601Z,17.40
2022-08-05T06:32:25.917Z,15.27
2022-08-05T06:34:57.966Z,15.40
2022-08-05T06:37:57.665Z,15.20
2022-08-05T06:40:18.539Z,13.00
2022-08-05T06:42:52.011Z,13.10
2022-08-05T06:45:44.107Z,11.02
2022-08-05T06:48:47.377Z,11.43
2022-08-05T06:50:58.611Z,10.50
2022-08-05T06:53:29.311Z,10.25
2022-08-05T06:56:00.679Z,11.57
2022-08-05T06:58:35.448Z,12.43
2022-08-05T07:01:07.149Z,12.10
2022-08-05T07:03:35.681Z,9.60
2022-08-05T07:06:05.980Z,8.68
2022-08-05T07:08:42.701Z,8.20
2022-08-05T07:11:15.217Z,8.13
2022-08-05T07:14:01.382Z,6.82
2022-08-05T07:17:59.396Z,6.38
2022-08-05T07:20:23.141Z,5.63
2022-08-05T07:22:28.875Z,8.38
2022-08-05T07:25:24.079Z,10.32
2022-08-05T07:27:56.520Z,9.75
2022-08-05T07:30:32.723Z,8.88
2022-08-05T07:33:01.933Z,8.88
2022-08-05T07:36:03.943Z,9.63
2022-08-05T07:38:32.581Z,10.50
2022-08-05T07:42:08.166Z,10.00
2022-08-05T07:43:58.919Z,10.05
2022-08-05T07:46:28.191Z,9.18
2022-08-05T07:49:03.875Z,9.82
2022-08-05T07:51:48.921Z,10.95
2022-08-05T07:54:30.195Z,10.15
2022-08-05T07:57:41.801Z,10.35
2022-08-05T07:59:49.682Z,10.57
2022-08-05T08:02:18.326Z,9.93
2022-08-05T08:04:48.625Z,9.60
2022-08-05T08:07:17.929Z,10.15
2022-08-05T08:09:46.327Z,10.15
2022-08-05T08:12:33.376Z,9.50
2022-08-05T08:15:13.913Z,11.75
2022-08-05T08:17:46.332Z,12.68
2022-08-05T08:20:59.908Z,10.52
2022-08-05T08:23:59.985Z,8.95
2022-08-05T08:26:00.578Z,9.63
2022-08-05T08:28:36.223Z,10.02
2022-08-05T08:31:07.348Z,10.10
2022-08-05T08:33:38.312Z,10.93
2022-08-05T08:36:39.213Z,10.68
2022-08-05T08:38:56.766Z,10.88
2022-08-05T08:41:52.446Z,12.70
2022-08-05T08:45:19.858Z,10.70
2022-08-05T08:47:47.307Z,11.10
2022-08-05T08:50:23.069Z,14.88
2022-08-05T08:52:51.865Z,20.83
2022-08-05T08:56:01.811Z,22.63
2022-08-05T08:58:12.965Z,21.83
2022-08-05T09:00:42.558Z,19.20
2022-08-05T09:03:16.332Z,19.30
2022-08-05T09:06:07.859Z,19.17
2022-08-05T09:08:40.135Z,19.92
2022-08-05T09:11:08.939Z,18.50
2022-08-05T09:14:09.803Z,18.05
2022-08-05T09:16:32.049Z,17.13
2022-08-05T09:19:01.509Z,15.68
2022-08-05T09:22:23.519Z,14.80
2022-08-05T09:24:24.278Z,17.38
2022-08-05T09:26:53.782Z,16.53
2022-08-05T09:29:30.915Z,13.88
2022-08-05T09:32:41.514Z,13.88
2022-08-05T09:34:55.068Z,13.68
2022-08-05T09:38:18.484Z,14.02
2022-08-05T09:40:31.116Z,13.15
2022-08-05T09:43:01.193Z,13.77
2022-08-05T09:46:07.641Z,13.18
2022-08-05T09:48:30.671Z,14.18
2022-08-05T09:51:03.041Z,14.38
2022-08-05T09:53:53.929Z,14.93
2022-08-05T09:56:27.597Z,12.98
2022-08-05T09:59:00.643Z,12.25
2022-08-05T10:01:31.762Z,13.65
2022-08-05T10:04:10.088Z,13.65
2022-08-05T10:06:49.909Z,13.65
2022-08-05T10:09:28.103Z,11.85
2022-08-05T10:12:30.220Z,11.18
2022-08-05T10:15:16.314Z,10.32
2022-08-05T10:18:03.165Z,10.85
2022-08-05T10:20:33.330Z,9.52
2022-08-05T10:25:31.746Z,7.50
2022-08-05T10:28:16.611Z,7.55
2022-08-05T10:32:49.411Z,7.35
2022-08-05T10:33:36.317Z,6.53
2022-08-05T10:36:05.849Z,5.78
2022-08-05T10:38:37.234Z,4.93
2022-08-05T10:41:14.786Z,4.60
2022-08-05T10:43:59.320Z,4.93
2022-08-05T10:46:45.031Z,5.05
2022-08-05T10:49:16.822Z,4.90
2022-08-05T10:51:53.083Z,4.32
2022-08-05T10:54:56.025Z,4.65
2022-08-05T10:57:31.792Z,4.95
2022-08-05T11:00:19.648Z,4.40
2022-08-05T11:03:23.529Z,4.22
2022-08-05T11:06:15.651Z,4.30
2022-08-05T11:09:16.750Z,4.88
2022-08-05T11:11:52.544Z,4.23
2022-08-05T11:14:49.322Z,3.92
2022-08-05T11:17:57.441Z,4.60
2022-08-05T11:20:52.394Z,3.70
2022-08-05T11:24:03.783Z,4.57
2022-08-05T11:26:28.584Z,3.80
2022-08-05T11:29:06.957Z,3.50
2022-08-05T11:31:56.561Z,5.13
2022-08-05T11:34:39.049Z,4.80
2022-08-05T11:38:29.050Z,4.88
2022-08-05T11:40:03.462Z,5.35
2022-08-05T11:42:38.052Z,4.63
2022-08-05T11:45:14.435Z,5.10
2022-08-05T11:47:58.911Z,5.50
2022-08-05T11:50:27.290Z,6.05
2022-08-05T11:52:58.216Z,7.00
2022-08-05T11:55:31.789Z,6.60
2022-08-05T11:58:10.481Z,7.75
2022-08-05T12:00:44.127Z,8.70
2022-08-05T12:03:29.650Z,7.68
2022-08-05T12:06:02.905Z,7.57
2022-08-05T12:08:32.897Z,7.07
2022-08-05T12:11:05.825Z,6.40
2022-08-05T12:13:49.240Z,5.40
2022-08-05T12:16:25.511Z,4.47
2022-08-05T12:18:55.918Z,3.75
2022-08-05T12:21:26.760Z,3.95
2022-08-05T12:24:04.239Z,2.58
2022-08-05T12:26:34.688Z,2.85
2022-08-05T12:29:03.533Z,2.75
2022-08-05T12:31:46.112Z,2.60
2022-08-05T12:34:21.323Z,2.13
2022-08-05T12:36:53.907Z,2.30
2022-08-05T12:39:23.735Z,2.20
2022-08-05T12:42:00.156Z,2.33
2022-08-05T12:44:33.704Z,2.50
2022-08-05T12:47:04.366Z,2.28
2022-08-05T12:50:04.404Z,2.53
2022-08-05T12:52:42.323Z,2.72
2022-08-05T12:55:25.089Z,2.25
2022-08-05T12:58:38.914Z,2.33
2022-08-05T13:02:02.061Z,2.55
2022-08-05T13:03:42.218Z,2.47
2022-08-05T13:06:17.610Z,2.53
2022-08-05T13:08:50.937Z,3.20
2022-08-05T13:11:57.933Z,2.60
2022-08-05T13:14:20.090Z,2.20
2022-08-05T13:16:50.514Z,2.83
2022-08-05T13:21:52.558Z,3.08
2022-08-05T13:24:36.380Z,2.80
2022-08-05T13:27:20.930Z,2.55
2022-08-05T13:29:59.379Z,2.08
2022-08-05T13:32:42.188Z,2.23
2022-08-05T13:35:22.387Z,2.22
2022-08-05T13:38:04.914Z,2.10
2022-08-05T13:40:51.544Z,1.52
2022-08-05T13:43:22.030Z,2.10
2022-08-05T13:45:50.892Z,2.13
2022-08-05T13:48:58.419Z,5.18
2022-08-05T13:51:09.592Z,2.20
2022-08-05T13:53:47.992Z,2.00
2022-08-05T13:56:18.397Z,2.70
2022-08-05T13:58:53.480Z,1.80
2022-08-05T14:01:36.220Z,1.58
2022-08-05T14:04:43.138Z,1.60
2022-08-05T14:07:25.823Z,1.60
2022-08-05T14:10:13.236Z,2.38
2022-08-05T14:12:42.833Z,1.73
2022-08-05T14:16:04.559Z,1.70
2022-08-05T14:18:00.942Z,1.98
2022-08-05T14:20:29.729Z,1.58
2022-08-05T14:22:59.467Z,1.90
2022-08-05T14:25:30.104Z,1.70
2022-08-05T14:27:58.990Z,1.98
2022-08-05T14:30:28.326Z,2.00
2022-08-05T14:32:58.945Z,1.70
2022-08-05T14:35:37.226Z,1.65
2022-08-05T14:38:31.858Z,1.58
2022-08-05T14:41:05.635Z,2.03
2022-08-05T14:43:59.722Z,1.65
2022-08-05T14:46:28.547Z,1.70
2022-08-05T14:49:03.386Z,1.58
2022-08-05T14:51:35.935Z,2.45
2022-08-05T14:54:28.368Z,2.67
2022-08-05T14:56:56.898Z,2.28
2022-08-05T14:59:29.777Z,2.22
2022-08-05T15:02:14.704Z,2.42
2022-08-05T15:08:08.612Z,1.80
2022-08-05T15:10:03.187Z,2.85
2022-08-05T15:12:51.320Z,2.00
2022-08-05T15:15:55.934Z,2.30
2022-08-05T15:18:09.735Z,2.15
2022-08-05T15:20:37.802Z,2.55
2022-08-05T15:23:06.539Z,2.92
2022-08-05T15:25:51.155Z,2.80
2022-08-05T15:28:27.040Z,2.80
2022-08-05T15:30:56.618Z,2.95
2022-08-05T15:34:05.346Z,3.00
2022-08-05T15:36:17.249Z,2.58
2022-08-05T15:40:58.547Z,2.47
2022-08-05T15:41:55.569Z,2.28
2022-08-05T15:44:27.619Z,2.30
2022-08-05T15:46:56.119Z,3.22
2022-08-05T15:49:47.977Z,2.50
2022-08-05T15:52:29.334Z,2.47
2022-08-05T15:55:01.303Z,2.60
2022-08-05T15:57:34.532Z,2.58
2022-08-05T16:00:03.950Z,2.90
2022-08-05T16:02:33.093Z,2.90
2022-08-05T16:05:01.495Z,2.55
2022-08-05T16:07:29.852Z,2.15
2022-08-05T16:09:57.943Z,2.25
2022-08-05T16:12:26.350Z,2.33
2022-08-05T16:14:56.688Z,2.45
2022-08-05T16:17:25.562Z,2.60
2022-08-05T16:20:11.213Z,2.75
2022-08-05T16:22:41.896Z,2.40
2022-08-05T16:25:10.373Z,2.28
2022-08-05T16:27:59.969Z,2.60
2022-08-05T16:30:31.051Z,2.22
2022-08-05T16:33:00.406Z,2.25
2022-08-05T16:35:32.588Z,2.13
2022-08-05T16:38:18.662Z,1.90
2022-08-05T16:40:59.613Z,2.25
2022-08-05T16:43:30.778Z,1.80
2022-08-05T16:46:04.915Z,2.10
2022-08-05T16:48:40.841Z,2.53
2022-08-05T16:51:10.845Z,2.20
2022-08-05T16:54:05.090Z,2.00
2022-08-05T16:56:30.741Z,2.28
2022-08-05T16:59:00.956Z,2.15
2022-08-05T17:01:53.692Z,1.95
2022-08-05T17:04:26.508Z,1.90
2022-08-05T17:07:00.193Z,1.80
2022-08-05T17:09:29.560Z,1.63
2022-08-05T17:11:59.790Z,1.80
2022-08-05T17:14:37.677Z,2.00
2022-08-05T17:17:09.471Z,1.73
2022-08-05T17:19:46.115Z,1.77
2022-08-05T17:22:24.366Z,1.90
2022-08-05T17:24:57.554Z,2.47
2022-08-05T17:27:33.479Z,2.00
2022-08-05T17:30:03.313Z,2.20
2022-08-05T17:32:34.678Z,2.50
2022-08-05T17:35:04.051Z,1.85
2022-08-05T17:37:40.320Z,1.80
2022-08-05T17:40:15.382Z,1.00
2022-08-05T17:42:51.006Z,1.00
2022-08-05T17:45:21.861Z,0.98
2022-08-05T17:47:55.482Z,0.82
2022-08-05T17:50:28.299Z,0.50
2022-08-05T17:53:00.139Z,0.60
2022-08-05T17:55:38.407Z,0.77
2022-08-05T17:58:11.143Z,0.98
2022-08-05T18:00:44.580Z,0.60
2022-08-05T18:06:12.215Z,1.00
2022-08-05T18:08:45.499Z,0.80
2022-08-05T18:11:23.240Z,0.60
2022-08-05T18:13:52.943Z,0.88
2022-08-05T18:16:21.386Z,0.73
2022-08-05T18:18:50.994Z,0.60
2022-08-05T18:21:22.868Z,0.57
2022-08-05T18:23:54.621Z,0.60
2022-08-05T18:26:27.702Z,0.52
2022-08-05T18:28:58.103Z,0.50
2022-08-05T18:31:35.223Z,0.70
2022-08-05T18:34:05.824Z,0.60
2022-08-05T18:36:36.050Z,1.00
2022-08-05T18:39:06.693Z,0.70
2022-08-05T18:41:56.163Z,0.70
2022-08-05T18:44:35.052Z,0.80
2022-08-05T18:47:15.692Z,0.93
2022-08-05T18:50:02.603Z,0.80
2022-08-05T18:52:35.697Z,0.70
2022-08-05T18:55:10.288Z,0.98
2022-08-05T18:57:43.149Z,1.08
2022-08-05T19:00:20.626Z,0.67
2022-08-05T19:02:49.257Z,0.70
2022-08-05T19:06:13.536Z,0.60
2022-08-05T19:08:13.503Z,0.60
2022-08-05T19:10:41.820Z,0.85
2022-08-05T19:13:12.413Z,0.90
2022-08-05T19:15:58.997Z,0.60
2022-08-05T19:18:31.557Z,0.73
2022-08-05T19:21:01.616Z,0.57
2022-08-05T19:24:05.217Z,0.60
2022-08-05T19:26:22.632Z,0.63
2022-08-05T19:28:51.099Z,1.20
2022-08-05T19:31:21.529Z,0.90
2022-08-05T19:33:56.392Z,1.73
2022-08-05T19:36:27.183Z,0.95
2022-08-05T19:39:00.866Z,0.70
2022-08-05T19:41:58.149Z,0.82
2022-08-05T19:44:18.826Z,0.85
2022-08-05T19:46:47.045Z,0.70
2022-08-05T19:49:17.056Z,0.70
2022-08-05T19:52:04.823Z,0.80
2022-08-05T19:54:35.091Z,0.93
2022-08-05T19:57:08.714Z,0.93
2022-08-05T20:00:00.575Z,0.80
2022-08-05T20:02:31.465Z,0.88
2022-08-05T20:05:00.149Z,0.70
2022-08-05T20:07:48.809Z,0.65
2022-08-05T20:10:22.112Z,1.23
2022-08-05T20:12:50.806Z,0.90
2022-08-05T20:15:48.663Z,0.90
2022-08-05T20:21:00.067Z,0.90
2022-08-05T20:23:40.103Z,0.90
2022-08-05T20:26:20.379Z,0.65
2022-08-05T20:28:51.159Z,0.90
2022-08-05T20:31:28.381Z,1.00
2022-08-05T20:34:10.629Z,0.95
2022-08-05T20:36:39.064Z,1.00
2022-08-05T20:39:13.537Z,0.90
2022-08-05T20:41:45.247Z,0.80
2022-08-05T20:44:18.650Z,0.77
2022-08-05T20:46:57.206Z,1.05
2022-08-05T20:49:26.410Z,1.10
2022-08-05T20:51:54.903Z,0.90
2022-08-05T20:54:25.504Z,1.17
2022-08-05T20:57:14.436Z,0.63
2022-08-05T21:00:11.075Z,0.85
2022-08-05T21:02:31.407Z,1.10
2022-08-05T21:05:01.264Z,0.80
2022-08-05T21:07:50.501Z,1.15
2022-08-05T21:10:21.421Z,0.80
2022-08-05T21:13:09.068Z,0.98
2022-08-05T21:15:38.524Z,0.90
2022-08-05T21:18:06.724Z,0.80
2022-08-05T21:20:35.118Z,0.95
2022-08-05T21:23:03.782Z,0.90
2022-08-05T21:25:34.843Z,0.90
2022-08-05T21:28:04.023Z,1.10
2022-08-05T21:30:32.704Z,1.00
2022-08-05T21:33:01.705Z,0.90
2022-08-05T21:35:55.428Z,0.98
2022-08-05T21:38:20.246Z,1.10
2022-08-05T21:40:49.726Z,0.85
2022-08-05T21:43:24.808Z,1.07
2022-08-05T21:45:57.796Z,0.93
2022-08-05T21:48:29.367Z,0.90
2022-08-05T21:50:59.948Z,1.10
2022-08-05T21:53:28.230Z,1.00
2022-08-05T21:56:09.944Z,1.20
2022-08-05T21:58:48.237Z,1.30
2022-08-05T22:01:26.365Z,1.33
2022-08-05T22:03:54.593Z,1.20
2022-08-05T22:06:37.112Z,1.02
2022-08-05T22:09:13.248Z,0.90
2022-08-05T22:11:46.945Z,1.27
2022-08-05T22:14:33.536Z,1.17
2022-08-05T22:17:06.978Z,1.15
2022-08-05T22:20:02.848Z,1.05
2022-08-05T22:22:28.060Z,0.90
2022-08-05T22:25:21.206Z,0.70
2022-08-05T22:28:08.498Z,0.60
2022-08-05T22:30:44.001Z,1.02
2022-08-05T22:33:58.438Z,0.80
2022-08-05T22:36:10.479Z,0.98
2022-08-05T22:38:43.610Z,0.90
2022-08-05T22:41:16.776Z,1.02
2022-08-05T22:44:07.227Z,1.13
2022-08-05T22:46:39.875Z,0.90
2022-08-05T22:49:23.235Z,1.25
2022-08-05T22:52:04.288Z,1.00
2022-08-05T22:54:35.045Z,1.10
2022-08-05T22:57:03.504Z,1.00
2022-08-05T22:59:46.060Z,1.27
2022-08-05T23:02:29.272Z,0.85
2022-08-05T23:05:01.641Z,1.20
2022-08-05T23:07:44.074Z,1.00
2022-08-05T23:10:14.845Z,1.05
2022-08-05T23:12:43.064Z,0.85
2022-08-05T23:15:13.811Z,0.95
2022-08-05T23:18:00.849Z,1.10
2022-08-05T23:20:31.032Z,1.17
2022-08-05T23:22:59.165Z,1.50
2022-08-05T23:25:53.094Z,1.20
2022-08-05T23:28:17.376Z,1.40
2022-08-05T23:30:53.679Z,1.33
2022-08-05T23:34:02.678Z,1.33
2022-08-05T23:36:13.637Z,1.60
2022-08-05T23:38:43.769Z,1.30
2022-08-05T23:41:12.833Z,0.93
2022-08-05T23:44:04.579Z,1.10
2022-08-05T23:46:30.831Z,1.40
2022-08-05T23:49:00.746Z,1.02
2022-08-05T23:51:55.097Z,1.20
2022-08-05T23:54:25.065Z,1.23
2022-08-05T23:56:56.020Z,0.70
2022-08-05T23:59:37.648Z,1.00
